Pagina principale
METAR-TAF:

METAR-TAF

Aeroporti :

Aeroporto Internazionale Philip S. W. Goldson

Belize City, Belize

latitudine: 17-32N, longitudine: 088-18W, altezza: 5 m

Osservazione

Il bollettino è stato emesso 42 minuti fa, alle 22:00 UTC
Vento 5 kt da est/sud-est
Temperature 31°C
Umidità 66%
Pressione 1010 hPa
Visibilità 10 km o più
nessuna nube inferiore a 1500 m e nessun cumulonembo

METAR: MZBZ 182200Z 11005KT CAVOK 31/24 A2983 Q1010 NOSIG RMK HAZY

Ora: 16:42 (22:42 UTC)

Previsione

Il bollettino è stato emesso 7 ore e 42 minuti fa, alle 15:00 UTC
Previsione valida dal 18 alle 18 UTC al 19 alle 18 UTC
Vento 12 kt da est/sud-est
Visibilità 10 km o più
Nubi sparse ad un'altezza di 2400 ft

TAF: MZBZ 181500Z 1818/1918 12012KT 9999 SCT024

Osservazioni e previsioni meteorologiche di più di 4000 aeroporti (messaggi METAR e TAF).

Le stazioni disponibili sono rappresentate dai dischi gialli e rossi sulla carta.

Puntare il mouse per vedere il nome della stazione.

Clicca sopra per visualizzare le osservazioni e previsioni meteorologiche.

Per cambiare la mappa : fare clic sui pulsanti verdi con una croce nera per ingrandire, il pulsante verde con un trattino per diminuire, o sulla freccia verde per le mappe adiacenti.


METAR-TAF: